This is the latest recevied weather packets stored in our database for station/object KK4EQF-12. If no packets are shown the sender has not sent any weather packets the latest 1 day(s).
| Time | Temp. | Humidity | Pressure | Rain* | Wind** | Luminosity | Snow |
|---|---|---|---|---|---|---|---|
| 1778026184 | 93.33° C | 100% | 1011.7 hPa | 0 mm | 114 m/s, 767° | - | - |
| 1778025884 | 25° C | 100% | 1011.6 hPa | 0 mm | 114 m/s, 250° | - | - |
| 1778025584 | 25° C | 100% | 1011.6 hPa | 0 mm | 1.34 m/s, 250° | - | - |
| 1778025284 | 25° C | 100% | 1011.6 hPa | 0 mm | 0.89 m/s, 227° | - | - |
| 1778024983 | 25° C | 100% | 1011.6 hPa | 0 mm | 0.89 m/s, 248° | - | - |
| 1778024683 | 25° C | 100% | 1011.6 hPa | 0 mm | 0.89 m/s, 261° | - | - |
| 1778024383 | 25° C | 100% | 1011.6 hPa | 0 mm | 1.34 m/s, 268° | - | - |
| 1778024082 | 25.56° C | 100% | 1011.6 hPa | 0 mm | 1.34 m/s, 262° | - | - |
| 1778023782 | 25.56° C | 100% | 1011.6 hPa | 0 mm | 1.34 m/s, 240° | - | - |
| 1778023482 | 25.56° C | 100% | 1011.6 hPa | 0 mm | 1.34 m/s, 236° | - | - |
| 1778023181 | 25.56° C | 100% | 1011.6 hPa | 0 mm | 0.89 m/s, 248° | - | - |
| 1778022881 | 26.11° C | 100% | 1011.6 hPa | 0 mm | 0.89 m/s, 275° | - | - |
| 1778022581 | 26.11° C | 100% | 1011.6 hPa | 0 mm | 0.89 m/s, 233° | - | - |
| 1778022281 | 26.11° C | 100% | 1011.6 hPa | 0 mm | 0.89 m/s, 251° | - | - |
| 1778021980 | 26.11° C | 100% | 1011.6 hPa | 0 mm | 1.34 m/s, 248° | - | - |
| 1778021680 | 26.11° C | 100% | 1011.6 hPa | 0 mm | 1.34 m/s, 293° | - | - |
| 1778021380 | 26.11° C | 100% | 1011.7 hPa | 0 mm | 1.34 m/s, 236° | - | - |
| 1778021079 | 26.11° C | 100% | 1011.7 hPa | 0 mm | 1.34 m/s, 262° | - | - |
| 1778020779 | 26.11° C | 100% | 1011.7 hPa | 0 mm | 1.79 m/s, 327° | - | - |
| 1778020479 | 26.11° C | 100% | 1011.7 hPa | 0 mm | 1.79 m/s, 250° | - | - |
| 1778020179 | 26.11° C | 100% | 1011.7 hPa | 0 mm | 1.34 m/s, 266° | - | - |
| 1778019878 | 26.11° C | 100% | 1011.7 hPa | 0 mm | 1.34 m/s, 232° | - | - |
| 1778019580 | 26.11° C | 100% | 1011.8 hPa | 0 mm | 1.34 m/s, 240° | - | - |
| 1778019280 | 26.67° C | 100% | 1011.8 hPa | 0 mm | 1.34 m/s, 227° | - | - |
| 1778018977 | 26.11° C | 100% | 1011.8 hPa | 0 mm | 1.79 m/s, 222° | - | - |
* Rain latest hour (hover to see other rain measurements)
** Current wind speed in m/s (hover to see current wind gust speed)